sensor_id;sensor_type;location;lat;lon;timestamp;pressure;altitude;pressure_sealevel;temperature;humidity
28606;BME280;46498;49.968;7.754;2023-05-07T00:03:04;-18651.00;;;11.71;100.00
28606;BME280;46498;49.968;7.754;2023-05-07T00:08:06;-18653.00;;;11.78;100.00
28606;BME280;46498;49.968;7.754;2023-05-07T00:13:06;-18653.00;;;11.78;100.00
28606;BME280;46498;49.968;7.754;2023-05-07T00:18:07;-18657.00;;;11.89;100.00
28606;BME280;46498;49.968;7.754;2023-05-07T00:23:09;-18658.00;;;11.93;100.00
28606;BME280;46498;49.968;7.754;2023-05-07T00:28:09;-18656.00;;;11.87;100.00
28606;BME280;46498;49.968;7.754;2023-05-07T00:33:10;-18654.00;;;11.82;100.00
28606;BME280;46498;49.968;7.754;2023-05-07T00:38:11;-18655.00;;;11.85;100.00
28606;BME280;46498;49.968;7.754;2023-05-07T00:43:12;-18652.00;;;11.74;100.00
28606;BME280;46498;49.968;7.754;2023-05-07T00:48:13;-18651.00;;;11.72;100.00
28606;BME280;46498;49.968;7.754;2023-05-07T00:53:15;-18650.00;;;11.69;100.00
28606;BME280;46498;49.968;7.754;2023-05-07T00:58:16;-18650.00;;;11.67;100.00
28606;BME280;46498;49.968;7.754;2023-05-07T01:03:17;-18648.00;;;11.61;100.00
28606;BME280;46498;49.968;7.754;2023-05-07T01:08:19;-18646.00;;;11.56;100.00
28606;BME280;46498;49.968;7.754;2023-05-07T01:13:20;-18653.00;;;11.77;100.00
28606;BME280;46498;49.968;7.754;2023-05-07T01:18:21;-18642.00;;;11.43;100.00
28606;BME280;46498;49.968;7.754;2023-05-07T01:23:22;-18634.00;;;11.19;100.00
28606;BME280;46498;49.968;7.754;2023-05-07T01:28:24;-18634.00;;;11.17;100.00
28606;BME280;46498;49.968;7.754;2023-05-07T01:33:26;-18636.00;;;11.25;100.00
28606;BME280;46498;49.968;7.754;2023-05-07T01:38:29;-18634.00;;;11.17;100.00
28606;BME280;46498;49.968;7.754;2023-05-07T01:43:30;-18629.00;;;11.04;100.00
28606;BME280;46498;49.968;7.754;2023-05-07T01:48:32;-18625.00;;;10.91;100.00
28606;BME280;46498;49.968;7.754;2023-05-07T01:53:37;-18628.00;;;10.98;100.00
28606;BME280;46498;49.968;7.754;2023-05-07T01:58:39;-18630.00;;;11.06;100.00
28606;BME280;46498;49.968;7.754;2023-05-07T02:03:40;-18628.00;;;11.00;100.00
28606;BME280;46498;49.968;7.754;2023-05-07T02:08:46;-18624.00;;;10.88;100.00
28606;BME280;46498;49.968;7.754;2023-05-07T02:13:48;-18631.00;;;11.10;100.00
28606;BME280;46498;49.968;7.754;2023-05-07T02:18:49;-18638.00;;;11.30;100.00
28606;BME280;46498;49.968;7.754;2023-05-07T02:23:50;-18635.00;;;11.20;100.00
28606;BME280;46498;49.968;7.754;2023-05-07T02:28:51;-18636.00;;;11.26;100.00
28606;BME280;46498;49.968;7.754;2023-05-07T02:33:53;-18635.00;;;11.23;100.00
28606;BME280;46498;49.968;7.754;2023-05-07T02:38:54;-18636.00;;;11.25;100.00
28606;BME280;46498;49.968;7.754;2023-05-07T02:43:55;-18637.00;;;11.29;100.00
28606;BME280;46498;49.968;7.754;2023-05-07T02:48:56;-18638.00;;;11.32;100.00
28606;BME280;46498;49.968;7.754;2023-05-07T02:53:57;-18639.00;;;11.33;100.00
28606;BME280;46498;49.968;7.754;2023-05-07T02:58:59;-18639.00;;;11.33;100.00
28606;BME280;46498;49.968;7.754;2023-05-07T03:04:02;-18639.00;;;11.35;100.00
28606;BME280;46498;49.968;7.754;2023-05-07T03:09:04;-18640.00;;;11.36;100.00
28606;BME280;46498;49.968;7.754;2023-05-07T03:14:04;-18640.00;;;11.38;100.00
28606;BME280;46498;49.968;7.754;2023-05-07T03:19:05;-18637.00;;;11.27;100.00
28606;BME280;46498;49.968;7.754;2023-05-07T03:24:06;-18636.00;;;11.25;100.00
28606;BME280;46498;49.968;7.754;2023-05-07T03:29:07;-18633.00;;;11.14;100.00
28606;BME280;46498;49.968;7.754;2023-05-07T03:34:08;-18631.00;;;11.10;100.00
28606;BME280;46498;49.968;7.754;2023-05-07T03:39:09;-18631.00;;;11.09;100.00
28606;BME280;46498;49.968;7.754;2023-05-07T03:44:13;-18637.00;;;11.27;100.00
28606;BME280;46498;49.968;7.754;2023-05-07T03:49:15;-18630.00;;;11.07;100.00
28606;BME280;46498;49.968;7.754;2023-05-07T03:54:15;-18629.00;;;11.04;100.00
28606;BME280;46498;49.968;7.754;2023-05-07T03:59:18;-18628.00;;;10.99;100.00
28606;BME280;46498;49.968;7.754;2023-05-07T04:04:21;-18626.00;;;10.93;100.00
28606;BME280;46498;49.968;7.754;2023-05-07T04:09:22;-18626.00;;;10.93;100.00
28606;BME280;46498;49.968;7.754;2023-05-07T04:14:23;-18620.00;;;10.75;100.00
28606;BME280;46498;49.968;7.754;2023-05-07T04:19:24;-18622.00;;;10.81;100.00
28606;BME280;46498;49.968;7.754;2023-05-07T04:24:26;-18628.00;;;11.00;100.00
28606;BME280;46498;49.968;7.754;2023-05-07T04:29:27;-18632.00;;;11.13;100.00
28606;BME280;46498;49.968;7.754;2023-05-07T04:34:29;-18636.00;;;11.24;100.00
28606;BME280;46498;49.968;7.754;2023-05-07T04:39:32;-18637.00;;;11.29;100.00
28606;BME280;46498;49.968;7.754;2023-05-07T04:44:33;-18639.00;;;11.34;100.00
28606;BME280;46498;49.968;7.754;2023-05-07T04:49:35;-18643.00;;;11.46;100.00
28606;BME280;46498;49.968;7.754;2023-05-07T04:54:36;-18646.00;;;11.55;100.00
28606;BME280;46498;49.968;7.754;2023-05-07T04:59:38;-18646.00;;;11.57;100.00
28606;BME280;46498;49.968;7.754;2023-05-07T05:04:40;-18650.00;;;11.67;100.00
28606;BME280;46498;49.968;7.754;2023-05-07T05:09:41;-18654.00;;;11.81;100.00
28606;BME280;46498;49.968;7.754;2023-05-07T05:14:42;-18658.00;;;11.93;100.00
28606;BME280;46498;49.968;7.754;2023-05-07T05:19:43;-18660.00;;;12.01;100.00
28606;BME280;46498;49.968;7.754;2023-05-07T05:24:44;-18665.00;;;12.17;100.00
28606;BME280;46498;49.968;7.754;2023-05-07T05:29:46;-18675.00;;;12.48;100.00
28606;BME280;46498;49.968;7.754;2023-05-07T05:34:47;-18684.00;;;12.75;100.00
28606;BME280;46498;49.968;7.754;2023-05-07T05:39:48;-18687.00;;;12.86;100.00
28606;BME280;46498;49.968;7.754;2023-05-07T05:44:50;-18689.00;;;12.92;100.00
28606;BME280;46498;49.968;7.754;2023-05-07T05:49:51;-18691.00;;;12.98;100.00
28606;BME280;46498;49.968;7.754;2023-05-07T05:54:53;-18691.00;;;12.96;100.00
28606;BME280;46498;49.968;7.754;2023-05-07T05:59:55;-18696.00;;;13.11;100.00
28606;BME280;46498;49.968;7.754;2023-05-07T06:04:56;-18697.00;;;13.16;100.00
28606;BME280;46498;49.968;7.754;2023-05-07T06:09:57;-18700.00;;;13.24;100.00
28606;BME280;46498;49.968;7.754;2023-05-07T06:14:58;-18701.00;;;13.28;100.00
28606;BME280;46498;49.968;7.754;2023-05-07T06:19:59;-18703.00;;;13.34;100.00
28606;BME280;46498;49.968;7.754;2023-05-07T06:25:00;-18711.00;;;13.61;100.00
28606;BME280;46498;49.968;7.754;2023-05-07T06:30:03;-18714.00;;;13.68;100.00
28606;BME280;46498;49.968;7.754;2023-05-07T06:35:04;-18713.00;;;13.66;100.00
28606;BME280;46498;49.968;7.754;2023-05-07T06:40:08;-18712.00;;;13.63;100.00
28606;BME280;46498;49.968;7.754;2023-05-07T06:45:12;-18714.00;;;13.69;100.00
28606;BME280;46498;49.968;7.754;2023-05-07T06:50:13;-18714.00;;;13.68;100.00
28606;BME280;46498;49.968;7.754;2023-05-07T06:55:14;-18715.00;;;13.71;100.00
28606;BME280;46498;49.968;7.754;2023-05-07T07:00:16;-18717.00;;;13.80;100.00
28606;BME280;46498;49.968;7.754;2023-05-07T07:05:22;-18720.00;;;13.87;100.00
28606;BME280;46498;49.968;7.754;2023-05-07T07:10:23;-18722.00;;;13.96;100.00
28606;BME280;46498;49.968;7.754;2023-05-07T07:15:25;-18723.00;;;13.99;100.00
28606;BME280;46498;49.968;7.754;2023-05-07T07:20:27;-18728.00;;;14.12;100.00
28606;BME280;46498;49.968;7.754;2023-05-07T07:25:29;-18731.00;;;14.24;100.00
28606;BME280;46498;49.968;7.754;2023-05-07T07:30:30;-18735.00;;;14.34;100.00
28606;BME280;46498;49.968;7.754;2023-05-07T07:35:32;-18733.00;;;14.28;99.62
28606;BME280;46498;49.968;7.754;2023-05-07T07:40:36;-18738.00;;;14.46;100.00
28606;BME280;46498;49.968;7.754;2023-05-07T07:45:37;-18744.00;;;14.63;96.54
28606;BME280;46498;49.968;7.754;2023-05-07T07:50:38;-18754.00;;;14.94;99.29
28606;BME280;46498;49.968;7.754;2023-05-07T07:55:47;-18759.00;;;15.10;98.15
28606;BME280;46498;49.968;7.754;2023-05-07T08:00:51;-18762.00;;;15.20;93.51
28606;BME280;46498;49.968;7.754;2023-05-07T08:05:52;-18773.00;;;15.55;93.70
28606;BME280;46498;49.968;7.754;2023-05-07T08:10:53;-18785.00;;;15.91;91.31
28606;BME280;46498;49.968;7.754;2023-05-07T08:16:00;-18785.00;;;15.92;90.86
28606;BME280;46498;49.968;7.754;2023-05-07T08:21:01;-18787.00;;;15.99;88.90
28606;BME280;46498;49.968;7.754;2023-05-07T08:26:04;-18789.00;;;16.05;90.50
28606;BME280;46498;49.968;7.754;2023-05-07T08:31:05;-18804.00;;;16.53;90.05
28606;BME280;46498;49.968;7.754;2023-05-07T08:36:09;-18815.00;;;16.88;90.13
28606;BME280;46498;49.968;7.754;2023-05-07T08:41:11;-18822.00;;;17.08;89.33
28606;BME280;46498;49.968;7.754;2023-05-07T08:46:17;-18825.00;;;17.20;88.38
28606;BME280;46498;49.968;7.754;2023-05-07T08:51:20;-18821.00;;;17.05;85.10
28606;BME280;46498;49.968;7.754;2023-05-07T08:56:22;-18824.00;;;17.16;79.84
28606;BME280;46498;49.968;7.754;2023-05-07T09:01:24;-18823.00;;;17.13;83.13
28606;BME280;46498;49.968;7.754;2023-05-07T09:06:26;-18824.00;;;17.16;84.37
28606;BME280;46498;49.968;7.754;2023-05-07T09:11:27;-18817.00;;;16.93;81.29
28606;BME280;46498;49.968;7.754;2023-05-07T09:16:30;-18812.00;;;16.77;84.16
28606;BME280;46498;49.968;7.754;2023-05-07T09:21:32;-18814.00;;;16.83;80.48
28606;BME280;46498;49.968;7.754;2023-05-07T09:26:34;-18809.00;;;16.68;83.76
28606;BME280;46498;49.968;7.754;2023-05-07T09:31:37;-18818.00;;;16.97;84.21
28606;BME280;46498;49.968;7.754;2023-05-07T09:36:39;-18821.00;;;17.06;78.48
28606;BME280;46498;49.968;7.754;2023-05-07T09:41:44;-18825.00;;;17.18;83.41
28606;BME280;46498;49.968;7.754;2023-05-07T09:47:10;-18829.00;;;17.32;77.70
28606;BME280;46498;49.968;7.754;2023-05-07T09:52:16;-18843.00;;;17.74;79.12
28606;BME280;46498;49.968;7.754;2023-05-07T09:57:22;-18854.00;;;18.09;82.99
28606;BME280;46498;49.968;7.754;2023-05-07T10:02:30;-18849.00;;;17.93;79.10
28606;BME280;46498;49.968;7.754;2023-05-07T10:07:32;-18846.00;;;17.83;84.17
28606;BME280;46498;49.968;7.754;2023-05-07T10:12:40;-18837.00;;;17.55;80.72
28606;BME280;46498;49.968;7.754;2023-05-07T10:17:46;-18826.00;;;17.20;74.14
28606;BME280;46498;49.968;7.754;2023-05-07T10:22:50;-18835.00;;;17.51;74.92
28606;BME280;46498;49.968;7.754;2023-05-07T10:27:57;-18836.00;;;17.53;70.93
28606;BME280;46498;49.968;7.754;2023-05-07T10:33:03;-18845.00;;;17.82;74.31
28606;BME280;46498;49.968;7.754;2023-05-07T10:38:07;-18848.00;;;17.89;72.22
28606;BME280;46498;49.968;7.754;2023-05-07T10:43:10;-18843.00;;;17.75;70.68
28606;BME280;46498;49.968;7.754;2023-05-07T10:48:19;-18857.00;;;18.20;78.04
28606;BME280;46498;49.968;7.754;2023-05-07T10:53:27;-18858.00;;;18.21;76.21
28606;BME280;46498;49.968;7.754;2023-05-07T10:58:36;-18868.00;;;18.53;74.94
28606;BME280;46498;49.968;7.754;2023-05-07T11:04:14;-18865.00;;;18.44;73.04
28606;BME280;46498;49.968;7.754;2023-05-07T11:09:20;-18866.00;;;18.46;70.61
28606;BME280;46498;49.968;7.754;2023-05-07T11:14:44;-18868.00;;;18.55;74.55
28606;BME280;46498;49.968;7.754;2023-05-07T11:19:55;-18864.00;;;18.41;73.74
28606;BME280;46498;49.968;7.754;2023-05-07T11:25:08;-18879.00;;;18.87;73.07
28606;BME280;46498;49.968;7.754;2023-05-07T11:30:10;-18878.00;;;18.85;65.17
28606;BME280;46498;49.968;7.754;2023-05-07T11:35:12;-18877.00;;;18.83;65.33
28606;BME280;46498;49.968;7.754;2023-05-07T11:40:14;-18891.00;;;19.24;71.50
28606;BME280;46498;49.968;7.754;2023-05-07T11:45:23;-18900.00;;;19.54;62.99
28606;BME280;46498;49.968;7.754;2023-05-07T11:50:25;-18909.00;;;19.84;62.19
28606;BME280;46498;49.968;7.754;2023-05-07T11:55:27;-18914.00;;;19.98;63.20
28606;BME280;46498;49.968;7.754;2023-05-07T12:00:28;-18922.00;;;20.22;64.92
28606;BME280;46498;49.968;7.754;2023-05-07T12:05:28;-18932.00;;;20.57;65.58
28606;BME280;46498;49.968;7.754;2023-05-07T12:10:30;-18930.00;;;20.49;62.09
28606;BME280;46498;49.968;7.754;2023-05-07T12:15:31;-18938.00;;;20.73;56.41
28606;BME280;46498;49.968;7.754;2023-05-07T12:20:31;-18907.00;;;19.77;55.94
28606;BME280;46498;49.968;7.754;2023-05-07T12:25:42;-18907.00;;;19.78;60.33
28606;BME280;46498;49.968;7.754;2023-05-07T12:30:50;-18903.00;;;19.63;58.25
28606;BME280;46498;49.968;7.754;2023-05-07T12:35:54;-18898.00;;;19.48;64.38
28606;BME280;46498;49.968;7.754;2023-05-07T12:40:56;-18902.00;;;19.60;68.86
28606;BME280;46498;49.968;7.754;2023-05-07T12:46:00;-18916.00;;;20.05;57.44
28606;BME280;46498;49.968;7.754;2023-05-07T12:51:02;-18908.00;;;19.80;63.66
28606;BME280;46498;49.968;7.754;2023-05-07T12:56:05;-18917.00;;;20.08;53.52
28606;BME280;46498;49.968;7.754;2023-05-07T13:01:07;-18929.00;;;20.46;55.39
28606;BME280;46498;49.968;7.754;2023-05-07T13:06:10;-18930.00;;;20.50;56.41
28606;BME280;46498;49.968;7.754;2023-05-07T13:11:13;-18924.00;;;20.29;60.09
28606;BME280;46498;49.968;7.754;2023-05-07T13:16:14;-18936.00;;;20.69;53.61
28606;BME280;46498;49.968;7.754;2023-05-07T13:21:15;-18932.00;;;20.56;52.02
28606;BME280;46498;49.968;7.754;2023-05-07T13:26:15;-18948.00;;;21.05;53.25
28606;BME280;46498;49.968;7.754;2023-05-07T13:31:27;-18937.00;;;20.71;50.47
28606;BME280;46498;49.968;7.754;2023-05-07T13:36:28;-18944.00;;;20.92;52.26
28606;BME280;46498;49.968;7.754;2023-05-07T13:41:29;-18945.00;;;20.95;59.83
28606;BME280;46498;49.968;7.754;2023-05-07T13:46:30;-18939.00;;;20.78;54.94
28606;BME280;46498;49.968;7.754;2023-05-07T13:51:31;-18942.00;;;20.86;53.86
28606;BME280;46498;49.968;7.754;2023-05-07T13:56:32;-18942.00;;;20.88;50.42
28606;BME280;46498;49.968;7.754;2023-05-07T14:01:33;-18943.00;;;20.91;49.46
28606;BME280;46498;49.968;7.754;2023-05-07T14:06:34;-18946.00;;;21.00;51.45
28606;BME280;46498;49.968;7.754;2023-05-07T14:11:35;-18952.00;;;21.17;54.55
28606;BME280;46498;49.968;7.754;2023-05-07T14:16:37;-18954.00;;;21.24;51.75
28606;BME280;46498;49.968;7.754;2023-05-07T14:21:38;-18943.00;;;20.90;52.80
28606;BME280;46498;49.968;7.754;2023-05-07T14:26:39;-18927.00;;;20.38;53.19
28606;BME280;46498;49.968;7.754;2023-05-07T14:31:40;-18922.00;;;20.25;52.10
28606;BME280;46498;49.968;7.754;2023-05-07T14:36:41;-18915.00;;;20.01;55.02
28606;BME280;46498;49.968;7.754;2023-05-07T14:41:42;-18916.00;;;20.05;53.24
28606;BME280;46498;49.968;7.754;2023-05-07T14:46:42;-18915.00;;;20.02;54.85
28606;BME280;46498;49.968;7.754;2023-05-07T14:51:44;-18905.00;;;19.70;54.31
28606;BME280;46498;49.968;7.754;2023-05-07T14:56:46;-18906.00;;;19.72;58.62
28606;BME280;46498;49.968;7.754;2023-05-07T15:01:47;-18902.00;;;19.62;56.35
28606;BME280;46498;49.968;7.754;2023-05-07T15:06:48;-18903.00;;;19.65;58.56
28606;BME280;46498;49.968;7.754;2023-05-07T15:11:49;-18906.00;;;19.72;54.56
28606;BME280;46498;49.968;7.754;2023-05-07T15:16:50;-18901.00;;;19.58;53.99
28606;BME280;46498;49.968;7.754;2023-05-07T15:21:51;-18904.00;;;19.67;54.16
28606;BME280;46498;49.968;7.754;2023-05-07T15:26:52;-18902.00;;;19.61;54.14
28606;BME280;46498;49.968;7.754;2023-05-07T15:31:53;-18897.00;;;19.45;51.98
28606;BME280;46498;49.968;7.754;2023-05-07T15:36:55;-18895.00;;;19.38;52.17
28606;BME280;46498;49.968;7.754;2023-05-07T15:41:57;-18892.00;;;19.31;53.79
28606;BME280;46498;49.968;7.754;2023-05-07T15:46:59;-18891.00;;;19.24;55.35
28606;BME280;46498;49.968;7.754;2023-05-07T15:52:00;-18889.00;;;19.20;54.55
28606;BME280;46498;49.968;7.754;2023-05-07T15:57:01;-18889.00;;;19.19;54.83
28606;BME280;46498;49.968;7.754;2023-05-07T16:02:03;-18892.00;;;19.28;55.95
28606;BME280;46498;49.968;7.754;2023-05-07T16:07:05;-18875.00;;;18.76;69.25
28606;BME280;46498;49.968;7.754;2023-05-07T16:12:07;-18867.00;;;18.52;74.77
28606;BME280;46498;49.968;7.754;2023-05-07T16:17:07;-18857.00;;;18.20;81.56
28606;BME280;46498;49.968;7.754;2023-05-07T16:22:08;-18849.00;;;17.93;86.90
28606;BME280;46498;49.968;7.754;2023-05-07T16:27:09;-18840.00;;;17.67;90.19
28606;BME280;46498;49.968;7.754;2023-05-07T16:32:10;-18840.00;;;17.64;92.98
28606;BME280;46498;49.968;7.754;2023-05-07T16:37:11;-18832.00;;;17.40;97.70
28606;BME280;46498;49.968;7.754;2023-05-07T16:42:13;-18830.00;;;17.33;100.00
28606;BME280;46498;49.968;7.754;2023-05-07T16:47:13;-18822.00;;;17.08;100.00
28606;BME280;46498;49.968;7.754;2023-05-07T16:52:14;-18818.00;;;16.98;100.00
28606;BME280;46498;49.968;7.754;2023-05-07T16:57:15;-18816.00;;;16.89;100.00
28606;BME280;46498;49.968;7.754;2023-05-07T17:02:16;-18814.00;;;16.84;100.00
28606;BME280;46498;49.968;7.754;2023-05-07T17:07:17;-18808.00;;;16.66;100.00
28606;BME280;46498;49.968;7.754;2023-05-07T17:12:18;-18809.00;;;16.69;100.00
28606;BME280;46498;49.968;7.754;2023-05-07T17:17:18;-18802.00;;;16.46;100.00
28606;BME280;46498;49.968;7.754;2023-05-07T17:22:19;-18790.00;;;16.10;100.00
28606;BME280;46498;49.968;7.754;2023-05-07T17:27:20;-18782.00;;;15.82;100.00
28606;BME280;46498;49.968;7.754;2023-05-07T17:32:21;-18766.00;;;15.33;100.00
28606;BME280;46498;49.968;7.754;2023-05-07T17:37:23;-18765.00;;;15.31;100.00
28606;BME280;46498;49.968;7.754;2023-05-07T17:42:24;-18758.00;;;15.07;100.00
28606;BME280;46498;49.968;7.754;2023-05-07T17:47:25;-18758.00;;;15.07;100.00
28606;BME280;46498;49.968;7.754;2023-05-07T17:52:26;-18753.00;;;14.93;100.00
28606;BME280;46498;49.968;7.754;2023-05-07T17:57:29;-18749.00;;;14.78;100.00
28606;BME280;46498;49.968;7.754;2023-05-07T18:02:31;-18738.00;;;14.44;100.00
28606;BME280;46498;49.968;7.754;2023-05-07T18:07:32;-18737.00;;;14.41;100.00
28606;BME280;46498;49.968;7.754;2023-05-07T18:12:33;-18740.00;;;14.52;100.00
28606;BME280;46498;49.968;7.754;2023-05-07T18:17:35;-18747.00;;;14.74;100.00
28606;BME280;46498;49.968;7.754;2023-05-07T18:22:37;-18748.00;;;14.78;100.00
28606;BME280;46498;49.968;7.754;2023-05-07T18:27:38;-18751.00;;;14.85;100.00
28606;BME280;46498;49.968;7.754;2023-05-07T18:32:39;-18751.00;;;14.86;100.00
28606;BME280;46498;49.968;7.754;2023-05-07T18:37:40;-18750.00;;;14.81;100.00
28606;BME280;46498;49.968;7.754;2023-05-07T18:42:41;-18752.00;;;14.87;100.00
28606;BME280;46498;49.968;7.754;2023-05-07T18:47:42;-18756.00;;;15.00;100.00
28606;BME280;46498;49.968;7.754;2023-05-07T18:52:43;-18758.00;;;15.09;100.00
28606;BME280;46498;49.968;7.754;2023-05-07T18:57:44;-18757.00;;;15.03;100.00
28606;BME280;46498;49.968;7.754;2023-05-07T19:02:45;-18756.00;;;15.03;100.00
28606;BME280;46498;49.968;7.754;2023-05-07T19:07:46;-18754.00;;;14.96;100.00
28606;BME280;46498;49.968;7.754;2023-05-07T19:12:47;-18748.00;;;14.78;100.00
28606;BME280;46498;49.968;7.754;2023-05-07T19:17:49;-18749.00;;;14.81;100.00
28606;BME280;46498;49.968;7.754;2023-05-07T19:22:50;-18747.00;;;14.75;100.00
28606;BME280;46498;49.968;7.754;2023-05-07T19:27:51;-18741.00;;;14.55;100.00
28606;BME280;46498;49.968;7.754;2023-05-07T19:32:52;-18735.00;;;14.35;100.00
28606;BME280;46498;49.968;7.754;2023-05-07T19:37:53;-18736.00;;;14.40;100.00
28606;BME280;46498;49.968;7.754;2023-05-07T19:42:54;-18733.00;;;14.29;100.00
28606;BME280;46498;49.968;7.754;2023-05-07T19:47:55;-18733.00;;;14.30;100.00
28606;BME280;46498;49.968;7.754;2023-05-07T19:52:56;-18729.00;;;14.18;100.00
28606;BME280;46498;49.968;7.754;2023-05-07T19:57:58;-18726.00;;;14.08;100.00
28606;BME280;46498;49.968;7.754;2023-05-07T20:02:59;-18725.00;;;14.05;100.00
28606;BME280;46498;49.968;7.754;2023-05-07T20:08:00;-18729.00;;;14.17;100.00
28606;BME280;46498;49.968;7.754;2023-05-07T20:13:02;-18728.00;;;14.15;100.00
28606;BME280;46498;49.968;7.754;2023-05-07T20:18:03;-18725.00;;;14.04;100.00
28606;BME280;46498;49.968;7.754;2023-05-07T20:23:04;-18723.00;;;13.99;100.00
28606;BME280;46498;49.968;7.754;2023-05-07T20:28:05;-18724.00;;;13.99;100.00
28606;BME280;46498;49.968;7.754;2023-05-07T20:33:06;-18721.00;;;13.90;100.00
28606;BME280;46498;49.968;7.754;2023-05-07T20:38:07;-18720.00;;;13.90;100.00
28606;BME280;46498;49.968;7.754;2023-05-07T20:43:08;-18717.00;;;13.79;100.00
28606;BME280;46498;49.968;7.754;2023-05-07T20:48:09;-18714.00;;;13.69;100.00
28606;BME280;46498;49.968;7.754;2023-05-07T20:53:10;-18712.00;;;13.64;100.00
28606;BME280;46498;49.968;7.754;2023-05-07T20:58:11;-18717.00;;;13.79;100.00
28606;BME280;46498;49.968;7.754;2023-05-07T21:03:11;-18713.00;;;13.65;100.00
28606;BME280;46498;49.968;7.754;2023-05-07T21:08:13;-18713.00;;;13.67;100.00
28606;BME280;46498;49.968;7.754;2023-05-07T21:13:14;-18712.00;;;13.63;100.00
28606;BME280;46498;49.968;7.754;2023-05-07T21:18:16;-18714.00;;;13.69;100.00
28606;BME280;46498;49.968;7.754;2023-05-07T21:23:17;-18712.00;;;13.64;100.00
28606;BME280;46498;49.968;7.754;2023-05-07T21:28:18;-18711.00;;;13.61;100.00
28606;BME280;46498;49.968;7.754;2023-05-07T21:33:19;-18710.00;;;13.58;100.00
28606;BME280;46498;49.968;7.754;2023-05-07T21:38:20;-18709.00;;;13.55;100.00
28606;BME280;46498;49.968;7.754;2023-05-07T21:43:21;-18709.00;;;13.53;100.00
28606;BME280;46498;49.968;7.754;2023-05-07T21:48:22;-18705.00;;;13.40;100.00
28606;BME280;46498;49.968;7.754;2023-05-07T21:53:23;-18704.00;;;13.39;100.00
28606;BME280;46498;49.968;7.754;2023-05-07T21:58:24;-18706.00;;;13.45;100.00
28606;BME280;46498;49.968;7.754;2023-05-07T22:03:25;-18707.00;;;13.48;100.00
28606;BME280;46498;49.968;7.754;2023-05-07T22:08:26;-18701.00;;;13.29;100.00
28606;BME280;46498;49.968;7.754;2023-05-07T22:13:27;-18701.00;;;13.27;100.00
28606;BME280;46498;49.968;7.754;2023-05-07T22:18:28;-18697.00;;;13.16;100.00
28606;BME280;46498;49.968;7.754;2023-05-07T22:23:29;-18695.00;;;13.09;100.00
28606;BME280;46498;49.968;7.754;2023-05-07T22:28:30;-18701.00;;;13.29;100.00
28606;BME280;46498;49.968;7.754;2023-05-07T22:33:31;-18699.00;;;13.22;100.00
28606;BME280;46498;49.968;7.754;2023-05-07T22:38:32;-18708.00;;;13.52;100.00
28606;BME280;46498;49.968;7.754;2023-05-07T22:43:33;-18705.00;;;13.42;100.00
28606;BME280;46498;49.968;7.754;2023-05-07T22:48:34;-18704.00;;;13.38;100.00
28606;BME280;46498;49.968;7.754;2023-05-07T22:53:35;-18701.00;;;13.29;100.00
28606;BME280;46498;49.968;7.754;2023-05-07T22:58:36;-18702.00;;;13.33;100.00
28606;BME280;46498;49.968;7.754;2023-05-07T23:03:37;-18705.00;;;13.40;100.00
28606;BME280;46498;49.968;7.754;2023-05-07T23:08:37;-18704.00;;;13.37;100.00
28606;BME280;46498;49.968;7.754;2023-05-07T23:13:38;-18708.00;;;13.50;100.00
28606;BME280;46498;49.968;7.754;2023-05-07T23:18:39;-18709.00;;;13.53;100.00
28606;BME280;46498;49.968;7.754;2023-05-07T23:23:40;-18713.00;;;13.67;100.00
28606;BME280;46498;49.968;7.754;2023-05-07T23:28:41;-18711.00;;;13.61;100.00
28606;BME280;46498;49.968;7.754;2023-05-07T23:33:42;-18706.00;;;13.43;100.00
28606;BME280;46498;49.968;7.754;2023-05-07T23:38:43;-18702.00;;;13.33;100.00
28606;BME280;46498;49.968;7.754;2023-05-07T23:43:44;-18698.00;;;13.19;100.00
28606;BME280;46498;49.968;7.754;2023-05-07T23:48:45;-18701.00;;;13.29;100.00
28606;BME280;46498;49.968;7.754;2023-05-07T23:53:46;-18699.00;;;13.24;100.00
28606;BME280;46498;49.968;7.754;2023-05-07T23:58:47;-18697.00;;;13.17;100.00
